sensor_id;sensor_type;location;lat;lon;timestamp;temperature;humidity
76577;DHT22;65441;44.748;37.600;2024-01-06T00:02:16;6.51;86.54
76577;DHT22;65441;44.748;37.600;2024-01-06T00:04:45;6.54;86.70
76577;DHT22;65441;44.748;37.600;2024-01-06T00:07:14;6.50;86.89
76577;DHT22;65441;44.748;37.600;2024-01-06T00:09:42;6.52;85.93
76577;DHT22;65441;44.748;37.600;2024-01-06T00:12:11;6.55;86.25
76577;DHT22;65441;44.748;37.600;2024-01-06T00:14:39;6.58;86.41
76577;DHT22;65441;44.748;37.600;2024-01-06T00:17:10;6.63;86.58
76577;DHT22;65441;44.748;37.600;2024-01-06T00:19:39;6.59;85.90
76577;DHT22;65441;44.748;37.600;2024-01-06T00:22:08;6.60;86.16
76577;DHT22;65441;44.748;37.600;2024-01-06T00:24:36;6.50;85.70
76577;DHT22;65441;44.748;37.600;2024-01-06T00:27:04;6.51;86.09
76577;DHT22;65441;44.748;37.600;2024-01-06T00:29:33;6.41;87.05
76577;DHT22;65441;44.748;37.600;2024-01-06T00:32:02;6.44;86.03
76577;DHT22;65441;44.748;37.600;2024-01-06T00:34:30;6.33;86.05
76577;DHT22;65441;44.748;37.600;2024-01-06T00:36:59;6.28;86.50
76577;DHT22;65441;44.748;37.600;2024-01-06T00:39:29;6.21;86.67
76577;DHT22;65441;44.748;37.600;2024-01-06T00:41:57;6.15;86.05
76577;DHT22;65441;44.748;37.600;2024-01-06T00:44:26;5.99;86.54
76577;DHT22;65441;44.748;37.600;2024-01-06T00:46:54;5.93;87.29
76577;DHT22;65441;44.748;37.600;2024-01-06T00:49:22;5.87;87.39
76577;DHT22;65441;44.748;37.600;2024-01-06T00:51:51;5.72;87.77
76577;DHT22;65441;44.748;37.600;2024-01-06T00:54:19;5.66;87.16
76577;DHT22;65441;44.748;37.600;2024-01-06T00:56:49;5.63;87.54
76577;DHT22;65441;44.748;37.600;2024-01-06T00:59:18;5.60;87.84
76577;DHT22;65441;44.748;37.600;2024-01-06T01:01:46;5.54;87.24
76577;DHT22;65441;44.748;37.600;2024-01-06T01:04:15;5.43;87.90
76577;DHT22;65441;44.748;37.600;2024-01-06T01:06:43;5.40;86.97
76577;DHT22;65441;44.748;37.600;2024-01-06T01:09:11;5.48;88.57
76577;DHT22;65441;44.748;37.600;2024-01-06T01:11:41;5.49;88.37
76577;DHT22;65441;44.748;37.600;2024-01-06T01:14:11;5.56;87.33
76577;DHT22;65441;44.748;37.600;2024-01-06T01:16:39;5.56;86.74
76577;DHT22;65441;44.748;37.600;2024-01-06T01:19:08;5.62;86.71
76577;DHT22;65441;44.748;37.600;2024-01-06T01:21:36;5.65;86.59
76577;DHT22;65441;44.748;37.600;2024-01-06T01:24:05;5.69;86.65
76577;DHT22;65441;44.748;37.600;2024-01-06T01:26:34;5.64;86.78
76577;DHT22;65441;44.748;37.600;2024-01-06T01:29:02;5.63;86.19
76577;DHT22;65441;44.748;37.600;2024-01-06T01:31:32;5.59;86.58
76577;DHT22;65441;44.748;37.600;2024-01-06T01:34:01;5.45;86.15
76577;DHT22;65441;44.748;37.600;2024-01-06T01:36:29;5.39;87.26
76577;DHT22;65441;44.748;37.600;2024-01-06T01:38:57;5.39;88.01
76577;DHT22;65441;44.748;37.600;2024-01-06T01:41:26;5.37;88.15
76577;DHT22;65441;44.748;37.600;2024-01-06T01:43:54;5.23;87.86
76577;DHT22;65441;44.748;37.600;2024-01-06T01:46:25;5.21;87.38
76577;DHT22;65441;44.748;37.600;2024-01-06T01:48:56;5.22;87.94
76577;DHT22;65441;44.748;37.600;2024-01-06T01:51:28;5.25;88.02
76577;DHT22;65441;44.748;37.600;2024-01-06T01:53:57;5.17;86.19
76577;DHT22;65441;44.748;37.600;2024-01-06T01:56:27;5.16;87.57
76577;DHT22;65441;44.748;37.600;2024-01-06T01:58:56;5.15;87.15
76577;DHT22;65441;44.748;37.600;2024-01-06T02:01:24;5.13;87.10
76577;DHT22;65441;44.748;37.600;2024-01-06T02:03:54;5.16;87.27
76577;DHT22;65441;44.748;37.600;2024-01-06T02:06:23;5.15;86.17
76577;DHT22;65441;44.748;37.600;2024-01-06T02:08:51;5.11;87.51
76577;DHT22;65441;44.748;37.600;2024-01-06T02:11:20;5.11;86.88
76577;DHT22;65441;44.748;37.600;2024-01-06T02:13:48;5.06;87.97
76577;DHT22;65441;44.748;37.600;2024-01-06T02:16:16;5.03;88.36
76577;DHT22;65441;44.748;37.600;2024-01-06T02:18:45;5.01;88.06
76577;DHT22;65441;44.748;37.600;2024-01-06T02:21:15;5.01;88.30
76577;DHT22;65441;44.748;37.600;2024-01-06T02:23:47;5.01;88.27
76577;DHT22;65441;44.748;37.600;2024-01-06T02:26:15;5.02;88.79
76577;DHT22;65441;44.748;37.600;2024-01-06T02:28:43;5.03;89.54
76577;DHT22;65441;44.748;37.600;2024-01-06T02:31:14;5.00;88.27
76577;DHT22;65441;44.748;37.600;2024-01-06T02:33:42;5.00;88.31
76577;DHT22;65441;44.748;37.600;2024-01-06T02:36:11;4.76;88.83
76577;DHT22;65441;44.748;37.600;2024-01-06T02:38:39;4.88;88.47
76577;DHT22;65441;44.748;37.600;2024-01-06T02:41:08;4.89;88.36
76577;DHT22;65441;44.748;37.600;2024-01-06T02:43:37;4.82;88.48
76577;DHT22;65441;44.748;37.600;2024-01-06T02:46:07;4.86;87.77
76577;DHT22;65441;44.748;37.600;2024-01-06T02:48:35;4.88;87.60
76577;DHT22;65441;44.748;37.600;2024-01-06T02:51:03;4.87;87.80
76577;DHT22;65441;44.748;37.600;2024-01-06T02:53:32;4.81;88.02
76577;DHT22;65441;44.748;37.600;2024-01-06T02:56:00;4.73;88.31
76577;DHT22;65441;44.748;37.600;2024-01-06T02:58:30;4.73;88.43
76577;DHT22;65441;44.748;37.600;2024-01-06T03:00:58;4.71;87.93
76577;DHT22;65441;44.748;37.600;2024-01-06T03:03:26;4.72;87.51
76577;DHT22;65441;44.748;37.600;2024-01-06T03:05:55;4.71;87.81
76577;DHT22;65441;44.748;37.600;2024-01-06T03:08:23;4.62;87.34
76577;DHT22;65441;44.748;37.600;2024-01-06T03:10:51;4.48;88.18
76577;DHT22;65441;44.748;37.600;2024-01-06T03:13:20;4.48;88.38
76577;DHT22;65441;44.748;37.600;2024-01-06T03:15:49;4.50;88.34
76577;DHT22;65441;44.748;37.600;2024-01-06T03:18:18;4.47;88.99
76577;DHT22;65441;44.748;37.600;2024-01-06T03:20:46;4.42;88.71
76577;DHT22;65441;44.748;37.600;2024-01-06T03:23:14;4.34;89.16
76577;DHT22;65441;44.748;37.600;2024-01-06T03:25:42;4.41;88.67
76577;DHT22;65441;44.748;37.600;2024-01-06T03:28:11;4.43;88.28
76577;DHT22;65441;44.748;37.600;2024-01-06T03:30:39;4.45;88.08
76577;DHT22;65441;44.748;37.600;2024-01-06T03:33:09;4.44;87.78
76577;DHT22;65441;44.748;37.600;2024-01-06T03:35:39;4.39;89.02
76577;DHT22;65441;44.748;37.600;2024-01-06T03:38:07;4.44;88.58
76577;DHT22;65441;44.748;37.600;2024-01-06T03:40:35;4.29;88.49
76577;DHT22;65441;44.748;37.600;2024-01-06T03:43:03;4.32;89.33
76577;DHT22;65441;44.748;37.600;2024-01-06T03:45:32;4.22;89.56
76577;DHT22;65441;44.748;37.600;2024-01-06T03:48:00;4.27;89.06
76577;DHT22;65441;44.748;37.600;2024-01-06T03:50:30;4.16;89.31
76577;DHT22;65441;44.748;37.600;2024-01-06T03:52:58;4.06;89.20
76577;DHT22;65441;44.748;37.600;2024-01-06T03:55:26;4.14;90.04
76577;DHT22;65441;44.748;37.600;2024-01-06T03:57:54;4.03;88.44
76577;DHT22;65441;44.748;37.600;2024-01-06T04:00:23;4.06;89.44
76577;DHT22;65441;44.748;37.600;2024-01-06T04:02:52;3.94;88.80
76577;DHT22;65441;44.748;37.600;2024-01-06T04:05:20;3.97;89.52
76577;DHT22;65441;44.748;37.600;2024-01-06T04:07:50;4.00;89.21
76577;DHT22;65441;44.748;37.600;2024-01-06T04:10:19;3.97;88.77
76577;DHT22;65441;44.748;37.600;2024-01-06T04:12:47;4.06;89.42
76577;DHT22;65441;44.748;37.600;2024-01-06T04:15:15;4.10;89.91
76577;DHT22;65441;44.748;37.600;2024-01-06T04:17:46;4.13;89.81
76577;DHT22;65441;44.748;37.600;2024-01-06T04:20:14;4.07;89.03
76577;DHT22;65441;44.748;37.600;2024-01-06T04:22:42;4.05;89.63
76577;DHT22;65441;44.748;37.600;2024-01-06T04:25:13;4.10;90.42
76577;DHT22;65441;44.748;37.600;2024-01-06T04:27:41;4.01;88.89
76577;DHT22;65441;44.748;37.600;2024-01-06T04:30:10;4.07;89.18
76577;DHT22;65441;44.748;37.600;2024-01-06T04:32:39;4.05;89.29
76577;DHT22;65441;44.748;37.600;2024-01-06T04:35:07;4.10;88.78
76577;DHT22;65441;44.748;37.600;2024-01-06T04:37:36;4.07;88.82
76577;DHT22;65441;44.748;37.600;2024-01-06T04:40:05;3.99;88.38
76577;DHT22;65441;44.748;37.600;2024-01-06T04:42:35;3.97;88.99
76577;DHT22;65441;44.748;37.600;2024-01-06T04:45:04;4.03;88.35
76577;DHT22;65441;44.748;37.600;2024-01-06T04:47:33;4.03;87.72
76577;DHT22;65441;44.748;37.600;2024-01-06T04:50:01;4.20;89.59
76577;DHT22;65441;44.748;37.600;2024-01-06T04:52:30;4.34;88.26
76577;DHT22;65441;44.748;37.600;2024-01-06T04:54:58;4.42;89.31
76577;DHT22;65441;44.748;37.600;2024-01-06T04:57:26;4.44;88.64
76577;DHT22;65441;44.748;37.600;2024-01-06T04:59:56;4.54;88.35
76577;DHT22;65441;44.748;37.600;2024-01-06T05:02:24;4.56;88.40
76577;DHT22;65441;44.748;37.600;2024-01-06T05:04:52;4.53;88.44
76577;DHT22;65441;44.748;37.600;2024-01-06T05:07:21;4.51;88.29
76577;DHT22;65441;44.748;37.600;2024-01-06T05:09:49;4.48;88.43
76577;DHT22;65441;44.748;37.600;2024-01-06T05:12:17;4.47;88.53
76577;DHT22;65441;44.748;37.600;2024-01-06T05:14:45;4.58;89.15
76577;DHT22;65441;44.748;37.600;2024-01-06T05:17:15;4.71;90.16
76577;DHT22;65441;44.748;37.600;2024-01-06T05:19:43;4.81;90.37
76577;DHT22;65441;44.748;37.600;2024-01-06T05:22:11;4.89;88.91
76577;DHT22;65441;44.748;37.600;2024-01-06T05:24:40;4.97;88.06
76577;DHT22;65441;44.748;37.600;2024-01-06T05:27:08;5.03;87.28
76577;DHT22;65441;44.748;37.600;2024-01-06T05:29:36;5.08;87.91
76577;DHT22;65441;44.748;37.600;2024-01-06T05:32:05;5.09;87.32
76577;DHT22;65441;44.748;37.600;2024-01-06T05:34:35;5.12;87.10
76577;DHT22;65441;44.748;37.600;2024-01-06T05:37:03;5.12;87.85
76577;DHT22;65441;44.748;37.600;2024-01-06T05:39:31;5.10;87.70
76577;DHT22;65441;44.748;37.600;2024-01-06T05:42:03;5.19;89.36
76577;DHT22;65441;44.748;37.600;2024-01-06T05:44:35;5.21;89.60
76577;DHT22;65441;44.748;37.600;2024-01-06T05:47:04;5.15;89.45
76577;DHT22;65441;44.748;37.600;2024-01-06T05:49:34;5.12;88.87
76577;DHT22;65441;44.748;37.600;2024-01-06T05:52:06;5.12;88.81
76577;DHT22;65441;44.748;37.600;2024-01-06T05:54:34;5.26;89.32
76577;DHT22;65441;44.748;37.600;2024-01-06T05:57:04;5.34;89.23
76577;DHT22;65441;44.748;37.600;2024-01-06T05:59:33;5.68;88.23
76577;DHT22;65441;44.748;37.600;2024-01-06T06:02:01;6.11;85.55
76577;DHT22;65441;44.748;37.600;2024-01-06T06:04:29;6.94;83.46
76577;DHT22;65441;44.748;37.600;2024-01-06T06:06:59;7.91;78.88
76577;DHT22;65441;44.748;37.600;2024-01-06T06:09:30;9.15;74.20
76577;DHT22;65441;44.748;37.600;2024-01-06T06:12:01;9.96;70.71
76577;DHT22;65441;44.748;37.600;2024-01-06T06:14:29;10.44;69.96
76577;DHT22;65441;44.748;37.600;2024-01-06T06:16:57;10.74;69.35
76577;DHT22;65441;44.748;37.600;2024-01-06T06:19:25;11.13;68.38
76577;DHT22;65441;44.748;37.600;2024-01-06T06:21:54;11.34;67.27
76577;DHT22;65441;44.748;37.600;2024-01-06T06:24:23;11.58;65.44
76577;DHT22;65441;44.748;37.600;2024-01-06T06:26:52;11.91;65.41
76577;DHT22;65441;44.748;37.600;2024-01-06T06:29:23;12.19;64.50
76577;DHT22;65441;44.748;37.600;2024-01-06T06:31:56;13.03;61.88
76577;DHT22;65441;44.748;37.600;2024-01-06T06:34:25;13.46;59.91
76577;DHT22;65441;44.748;37.600;2024-01-06T06:36:53;13.62;60.93
76577;DHT22;65441;44.748;37.600;2024-01-06T06:39:23;13.51;59.81
76577;DHT22;65441;44.748;37.600;2024-01-06T06:41:53;13.30;62.43
76577;DHT22;65441;44.748;37.600;2024-01-06T06:44:22;13.26;62.03
76577;DHT22;65441;44.748;37.600;2024-01-06T06:46:50;13.12;64.30
76577;DHT22;65441;44.748;37.600;2024-01-06T06:49:19;13.08;64.17
76577;DHT22;65441;44.748;37.600;2024-01-06T06:51:47;13.18;62.76
76577;DHT22;65441;44.748;37.600;2024-01-06T06:54:16;13.41;64.04
76577;DHT22;65441;44.748;37.600;2024-01-06T06:56:46;13.52;61.76
76577;DHT22;65441;44.748;37.600;2024-01-06T06:59:14;13.71;52.97
76577;DHT22;65441;44.748;37.600;2024-01-06T07:01:42;13.65;54.31
76577;DHT22;65441;44.748;37.600;2024-01-06T07:04:11;13.76;57.68
76577;DHT22;65441;44.748;37.600;2024-01-06T07:06:39;14.12;60.25
76577;DHT22;65441;44.748;37.600;2024-01-06T07:09:07;14.35;60.64
76577;DHT22;65441;44.748;37.600;2024-01-06T07:11:35;14.65;61.01
76577;DHT22;65441;44.748;37.600;2024-01-06T07:14:05;15.00;59.99
76577;DHT22;65441;44.748;37.600;2024-01-06T07:16:33;14.94;54.59
76577;DHT22;65441;44.748;37.600;2024-01-06T07:19:02;15.34;57.90
76577;DHT22;65441;44.748;37.600;2024-01-06T07:21:30;15.34;56.86
76577;DHT22;65441;44.748;37.600;2024-01-06T07:23:58;15.82;56.95
76577;DHT22;65441;44.748;37.600;2024-01-06T07:26:27;15.97;55.28
76577;DHT22;65441;44.748;37.600;2024-01-06T07:28:56;15.91;51.17
76577;DHT22;65441;44.748;37.600;2024-01-06T07:31:26;15.58;52.96
76577;DHT22;65441;44.748;37.600;2024-01-06T07:33:54;15.30;52.85
76577;DHT22;65441;44.748;37.600;2024-01-06T07:36:22;15.42;54.58
76577;DHT22;65441;44.748;37.600;2024-01-06T07:38:55;15.48;59.15
76577;DHT22;65441;44.748;37.600;2024-01-06T07:41:50;14.82;53.56
76577;DHT22;65441;44.748;37.600;2024-01-06T07:44:19;14.70;51.70
76577;DHT22;65441;44.748;37.600;2024-01-06T07:46:53;14.42;53.07
76577;DHT22;65441;44.748;37.600;2024-01-06T07:49:21;13.67;54.85
76577;DHT22;65441;44.748;37.600;2024-01-06T07:51:49;13.82;59.18
76577;DHT22;65441;44.748;37.600;2024-01-06T07:54:18;13.83;55.35
76577;DHT22;65441;44.748;37.600;2024-01-06T07:56:46;13.07;59.90
76577;DHT22;65441;44.748;37.600;2024-01-06T07:59:15;13.52;58.07
76577;DHT22;65441;44.748;37.600;2024-01-06T08:01:43;13.26;55.73
76577;DHT22;65441;44.748;37.600;2024-01-06T08:04:13;13.01;58.10
76577;DHT22;65441;44.748;37.600;2024-01-06T08:06:42;12.87;56.07
76577;DHT22;65441;44.748;37.600;2024-01-06T08:09:11;12.72;56.32
76577;DHT22;65441;44.748;37.600;2024-01-06T08:11:39;13.02;58.05
76577;DHT22;65441;44.748;37.600;2024-01-06T08:14:09;13.09;57.51
76577;DHT22;65441;44.748;37.600;2024-01-06T08:16:38;12.76;56.10
76577;DHT22;65441;44.748;37.600;2024-01-06T08:19:06;12.41;59.36
76577;DHT22;65441;44.748;37.600;2024-01-06T08:21:36;12.22;59.89
76577;DHT22;65441;44.748;37.600;2024-01-06T08:24:05;12.61;61.71
76577;DHT22;65441;44.748;37.600;2024-01-06T08:26:34;12.45;59.79
76577;DHT22;65441;44.748;37.600;2024-01-06T08:29:02;12.17;60.65
76577;DHT22;65441;44.748;37.600;2024-01-06T08:31:31;12.01;64.18
76577;DHT22;65441;44.748;37.600;2024-01-06T08:33:59;12.29;62.87
76577;DHT22;65441;44.748;37.600;2024-01-06T08:36:28;12.26;62.00
76577;DHT22;65441;44.748;37.600;2024-01-06T08:38:57;12.47;65.28
76577;DHT22;65441;44.748;37.600;2024-01-06T08:41:26;12.22;61.26
76577;DHT22;65441;44.748;37.600;2024-01-06T08:43:54;12.46;63.85
76577;DHT22;65441;44.748;37.600;2024-01-06T08:46:22;12.35;62.18
76577;DHT22;65441;44.748;37.600;2024-01-06T08:48:50;12.18;63.52
76577;DHT22;65441;44.748;37.600;2024-01-06T08:51:19;11.89;62.93
76577;DHT22;65441;44.748;37.600;2024-01-06T08:53:48;12.21;60.71
76577;DHT22;65441;44.748;37.600;2024-01-06T08:56:18;12.44;61.92
76577;DHT22;65441;44.748;37.600;2024-01-06T08:58:46;12.67;60.68
76577;DHT22;65441;44.748;37.600;2024-01-06T09:01:14;12.84;60.85
76577;DHT22;65441;44.748;37.600;2024-01-06T09:03:43;13.03;59.03
76577;DHT22;65441;44.748;37.600;2024-01-06T09:06:11;12.90;59.97
76577;DHT22;65441;44.748;37.600;2024-01-06T09:08:41;12.82;59.73
76577;DHT22;65441;44.748;37.600;2024-01-06T09:11:09;12.59;60.47
76577;DHT22;65441;44.748;37.600;2024-01-06T09:13:39;12.58;60.02
76577;DHT22;65441;44.748;37.600;2024-01-06T09:16:07;12.77;60.62
76577;DHT22;65441;44.748;37.600;2024-01-06T09:18:37;12.77;61.65
76577;DHT22;65441;44.748;37.600;2024-01-06T09:21:06;13.18;62.44
76577;DHT22;65441;44.748;37.600;2024-01-06T09:23:35;13.14;62.98
76577;DHT22;65441;44.748;37.600;2024-01-06T09:26:03;13.39;63.97
76577;DHT22;65441;44.748;37.600;2024-01-06T09:28:32;13.60;65.08
76577;DHT22;65441;44.748;37.600;2024-01-06T09:31:02;13.40;65.01
76577;DHT22;65441;44.748;37.600;2024-01-06T09:33:31;13.23;65.07
76577;DHT22;65441;44.748;37.600;2024-01-06T09:36:00;13.14;65.62
76577;DHT22;65441;44.748;37.600;2024-01-06T09:38:29;12.99;69.13
76577;DHT22;65441;44.748;37.600;2024-01-06T09:40:58;13.12;67.61
76577;DHT22;65441;44.748;37.600;2024-01-06T09:43:26;13.16;65.81
76577;DHT22;65441;44.748;37.600;2024-01-06T09:46:05;13.22;68.68
76577;DHT22;65441;44.748;37.600;2024-01-06T09:48:39;13.32;67.62
76577;DHT22;65441;44.748;37.600;2024-01-06T09:51:11;13.47;67.64
76577;DHT22;65441;44.748;37.600;2024-01-06T09:53:46;13.52;66.13
76577;DHT22;65441;44.748;37.600;2024-01-06T09:56:18;12.96;67.72
76577;DHT22;65441;44.748;37.600;2024-01-06T09:58:46;12.63;69.97
76577;DHT22;65441;44.748;37.600;2024-01-06T10:01:17;12.97;69.90
76577;DHT22;65441;44.748;37.600;2024-01-06T10:03:46;13.66;72.28
76577;DHT22;65441;44.748;37.600;2024-01-06T10:06:15;13.89;66.52
76577;DHT22;65441;44.748;37.600;2024-01-06T10:08:44;13.76;66.09
76577;DHT22;65441;44.748;37.600;2024-01-06T10:11:13;13.86;64.99
76577;DHT22;65441;44.748;37.600;2024-01-06T10:13:41;13.78;67.82
76577;DHT22;65441;44.748;37.600;2024-01-06T10:16:10;13.14;69.28
76577;DHT22;65441;44.748;37.600;2024-01-06T10:18:42;13.23;68.23
76577;DHT22;65441;44.748;37.600;2024-01-06T10:21:13;13.58;67.22
76577;DHT22;65441;44.748;37.600;2024-01-06T10:23:44;13.49;67.33
76577;DHT22;65441;44.748;37.600;2024-01-06T10:26:14;13.26;67.42
76577;DHT22;65441;44.748;37.600;2024-01-06T10:28:44;13.40;66.92
76577;DHT22;65441;44.748;37.600;2024-01-06T10:31:12;13.27;67.32
76577;DHT22;65441;44.748;37.600;2024-01-06T10:33:43;13.63;67.01
76577;DHT22;65441;44.748;37.600;2024-01-06T10:36:11;13.48;67.52
76577;DHT22;65441;44.748;37.600;2024-01-06T10:38:41;13.21;67.65
76577;DHT22;65441;44.748;37.600;2024-01-06T10:41:10;13.65;68.28
76577;DHT22;65441;44.748;37.600;2024-01-06T10:43:41;13.43;62.85
76577;DHT22;65441;44.748;37.600;2024-01-06T10:46:10;13.73;60.87
76577;DHT22;65441;44.748;37.600;2024-01-06T10:48:39;13.44;62.60
76577;DHT22;65441;44.748;37.600;2024-01-06T10:51:11;13.40;64.82
76577;DHT22;65441;44.748;37.600;2024-01-06T10:53:40;13.77;66.52
76577;DHT22;65441;44.748;37.600;2024-01-06T10:56:10;13.74;63.34
76577;DHT22;65441;44.748;37.600;2024-01-06T10:58:40;13.83;61.97
76577;DHT22;65441;44.748;37.600;2024-01-06T11:01:12;13.69;63.51
76577;DHT22;65441;44.748;37.600;2024-01-06T11:03:41;13.60;61.60
76577;DHT22;65441;44.748;37.600;2024-01-06T11:06:11;13.64;63.92
76577;DHT22;65441;44.748;37.600;2024-01-06T11:08:54;13.79;65.04
76577;DHT22;65441;44.748;37.600;2024-01-06T11:11:25;13.52;63.47
76577;DHT22;65441;44.748;37.600;2024-01-06T11:14:17;13.48;63.17
76577;DHT22;65441;44.748;37.600;2024-01-06T11:16:46;13.38;64.72
76577;DHT22;65441;44.748;37.600;2024-01-06T11:19:42;13.24;64.38
76577;DHT22;65441;44.748;37.600;2024-01-06T11:22:21;13.33;64.75
76577;DHT22;65441;44.748;37.600;2024-01-06T11:24:50;13.45;64.73
76577;DHT22;65441;44.748;37.600;2024-01-06T11:27:22;13.51;64.16
76577;DHT22;65441;44.748;37.600;2024-01-06T11:29:53;13.58;63.55
76577;DHT22;65441;44.748;37.600;2024-01-06T11:32:27;13.47;63.08
76577;DHT22;65441;44.748;37.600;2024-01-06T11:35:05;13.06;64.47
76577;DHT22;65441;44.748;37.600;2024-01-06T11:37:39;13.02;65.74
76577;DHT22;65441;44.748;37.600;2024-01-06T11:40:23;12.92;67.97
76577;DHT22;65441;44.748;37.600;2024-01-06T11:43:00;12.33;67.72
76577;DHT22;65441;44.748;37.600;2024-01-06T11:45:29;12.28;69.65
76577;DHT22;65441;44.748;37.600;2024-01-06T11:48:00;12.32;69.49
76577;DHT22;65441;44.748;37.600;2024-01-06T11:50:30;12.22;70.25
76577;DHT22;65441;44.748;37.600;2024-01-06T11:53:01;12.35;69.86
76577;DHT22;65441;44.748;37.600;2024-01-06T11:55:30;12.45;70.79
76577;DHT22;65441;44.748;37.600;2024-01-06T11:58:00;12.73;69.57
76577;DHT22;65441;44.748;37.600;2024-01-06T12:00:30;12.95;69.67
76577;DHT22;65441;44.748;37.600;2024-01-06T12:02:59;13.10;71.32
76577;DHT22;65441;44.748;37.600;2024-01-06T12:05:28;13.11;68.52
76577;DHT22;65441;44.748;37.600;2024-01-06T12:08:02;13.02;68.46
76577;DHT22;65441;44.748;37.600;2024-01-06T12:11:05;12.65;72.06
76577;DHT22;65441;44.748;37.600;2024-01-06T12:13:34;12.71;72.47
76577;DHT22;65441;44.748;37.600;2024-01-06T12:16:04;12.41;73.35
76577;DHT22;65441;44.748;37.600;2024-01-06T12:18:33;12.32;74.37
76577;DHT22;65441;44.748;37.600;2024-01-06T12:21:02;12.22;75.28
76577;DHT22;65441;44.748;37.600;2024-01-06T12:23:32;12.12;75.83
76577;DHT22;65441;44.748;37.600;2024-01-06T12:26:01;11.93;76.06
76577;DHT22;65441;44.748;37.600;2024-01-06T12:28:29;11.76;76.95
76577;DHT22;65441;44.748;37.600;2024-01-06T12:30:58;11.56;77.74
76577;DHT22;65441;44.748;37.600;2024-01-06T12:33:26;11.38;79.32
76577;DHT22;65441;44.748;37.600;2024-01-06T12:35:54;11.25;80.43
76577;DHT22;65441;44.748;37.600;2024-01-06T12:38:24;11.12;81.20
76577;DHT22;65441;44.748;37.600;2024-01-06T12:40:57;10.94;81.83
76577;DHT22;65441;44.748;37.600;2024-01-06T12:43:25;10.93;81.94
76577;DHT22;65441;44.748;37.600;2024-01-06T12:45:55;10.83;82.77
76577;DHT22;65441;44.748;37.600;2024-01-06T12:48:24;10.80;83.72
76577;DHT22;65441;44.748;37.600;2024-01-06T12:50:53;10.74;84.42
76577;DHT22;65441;44.748;37.600;2024-01-06T12:53:21;10.68;84.10
76577;DHT22;65441;44.748;37.600;2024-01-06T12:55:50;10.59;84.81
76577;DHT22;65441;44.748;37.600;2024-01-06T12:58:20;10.62;84.67
76577;DHT22;65441;44.748;37.600;2024-01-06T13:00:50;10.67;84.78
76577;DHT22;65441;44.748;37.600;2024-01-06T13:03:19;10.59;85.32
76577;DHT22;65441;44.748;37.600;2024-01-06T13:05:48;10.65;85.21
76577;DHT22;65441;44.748;37.600;2024-01-06T13:08:17;10.65;85.41
76577;DHT22;65441;44.748;37.600;2024-01-06T13:10:46;10.62;85.29
76577;DHT22;65441;44.748;37.600;2024-01-06T13:13:14;10.54;85.64
76577;DHT22;65441;44.748;37.600;2024-01-06T13:15:44;10.52;86.08
76577;DHT22;65441;44.748;37.600;2024-01-06T13:18:13;10.54;85.88
76577;DHT22;65441;44.748;37.600;2024-01-06T13:20:43;10.55;85.59
76577;DHT22;65441;44.748;37.600;2024-01-06T13:23:12;10.52;85.79
76577;DHT22;65441;44.748;37.600;2024-01-06T13:25:40;10.46;85.60
76577;DHT22;65441;44.748;37.600;2024-01-06T13:28:09;10.41;85.03
76577;DHT22;65441;44.748;37.600;2024-01-06T13:30:37;10.38;84.89
76577;DHT22;65441;44.748;37.600;2024-01-06T13:33:07;10.40;85.00
76577;DHT22;65441;44.748;37.600;2024-01-06T13:35:37;10.35;85.83
76577;DHT22;65441;44.748;37.600;2024-01-06T13:38:06;10.33;86.25
76577;DHT22;65441;44.748;37.600;2024-01-06T13:40:35;10.30;86.34
76577;DHT22;65441;44.748;37.600;2024-01-06T13:43:04;10.33;86.85
76577;DHT22;65441;44.748;37.600;2024-01-06T13:45:35;10.36;86.61
76577;DHT22;65441;44.748;37.600;2024-01-06T13:48:04;10.38;87.34
76577;DHT22;65441;44.748;37.600;2024-01-06T13:50:34;10.26;86.42
76577;DHT22;65441;44.748;37.600;2024-01-06T13:53:03;10.29;87.44
76577;DHT22;65441;44.748;37.600;2024-01-06T13:55:32;10.30;87.69
76577;DHT22;65441;44.748;37.600;2024-01-06T13:58:01;10.27;87.95
76577;DHT22;65441;44.748;37.600;2024-01-06T14:00:30;10.23;87.52
76577;DHT22;65441;44.748;37.600;2024-01-06T14:02:59;10.21;88.10
76577;DHT22;65441;44.748;37.600;2024-01-06T14:05:28;10.26;87.99
76577;DHT22;65441;44.748;37.600;2024-01-06T14:07:57;10.28;88.29
76577;DHT22;65441;44.748;37.600;2024-01-06T14:10:25;10.30;88.28
76577;DHT22;65441;44.748;37.600;2024-01-06T14:12:54;10.30;88.29
76577;DHT22;65441;44.748;37.600;2024-01-06T14:15:23;10.30;88.10
76577;DHT22;65441;44.748;37.600;2024-01-06T14:17:52;10.28;88.49
76577;DHT22;65441;44.748;37.600;2024-01-06T14:20:21;10.27;87.71
76577;DHT22;65441;44.748;37.600;2024-01-06T14:22:49;10.28;87.77
76577;DHT22;65441;44.748;37.600;2024-01-06T14:25:19;10.27;88.03
76577;DHT22;65441;44.748;37.600;2024-01-06T14:27:48;10.25;87.93
76577;DHT22;65441;44.748;37.600;2024-01-06T14:30:16;10.20;88.20
76577;DHT22;65441;44.748;37.600;2024-01-06T14:32:46;10.22;88.22
76577;DHT22;65441;44.748;37.600;2024-01-06T14:35:14;10.18;88.16
76577;DHT22;65441;44.748;37.600;2024-01-06T14:37:43;10.20;88.39
76577;DHT22;65441;44.748;37.600;2024-01-06T14:40:12;10.23;88.31
76577;DHT22;65441;44.748;37.600;2024-01-06T14:42:42;10.23;88.05
76577;DHT22;65441;44.748;37.600;2024-01-06T14:45:13;10.20;88.42
76577;DHT22;65441;44.748;37.600;2024-01-06T14:47:41;10.19;88.47
76577;DHT22;65441;44.748;37.600;2024-01-06T14:50:09;10.16;88.92
76577;DHT22;65441;44.748;37.600;2024-01-06T14:52:37;10.16;88.60
76577;DHT22;65441;44.748;37.600;2024-01-06T14:55:06;10.14;88.92
76577;DHT22;65441;44.748;37.600;2024-01-06T14:57:35;10.10;88.56
76577;DHT22;65441;44.748;37.600;2024-01-06T15:00:05;10.16;88.60
76577;DHT22;65441;44.748;37.600;2024-01-06T15:02:37;10.19;88.54
76577;DHT22;65441;44.748;37.600;2024-01-06T15:05:07;10.16;88.48
76577;DHT22;65441;44.748;37.600;2024-01-06T15:07:37;10.12;88.76
76577;DHT22;65441;44.748;37.600;2024-01-06T15:10:06;10.13;88.75
76577;DHT22;65441;44.748;37.600;2024-01-06T15:12:36;10.16;88.73
76577;DHT22;65441;44.748;37.600;2024-01-06T15:15:07;10.16;89.12
76577;DHT22;65441;44.748;37.600;2024-01-06T15:17:35;10.16;88.91
76577;DHT22;65441;44.748;37.600;2024-01-06T15:20:05;10.21;89.54
76577;DHT22;65441;44.748;37.600;2024-01-06T15:22:34;10.20;89.35
76577;DHT22;65441;44.748;37.600;2024-01-06T15:25:02;10.19;89.09
76577;DHT22;65441;44.748;37.600;2024-01-06T15:27:32;10.22;89.42
76577;DHT22;65441;44.748;37.600;2024-01-06T15:30:01;10.21;89.77
76577;DHT22;65441;44.748;37.600;2024-01-06T15:32:35;10.23;89.76
76577;DHT22;65441;44.748;37.600;2024-01-06T15:35:05;10.19;89.57
76577;DHT22;65441;44.748;37.600;2024-01-06T15:37:34;10.16;89.76